YPDN

Darwin International Airport

Airport
ICAO code
YPDN
IATA Code
DRW
Summary
ICAO Region
APAC
ICAO Territory
Location

Marrara, Northern Territory

Serving
Darwin
Elevation
103 ft
Coordinates
12° 24' 54" S , 130° 52' 40" E
KCC
Metar
Observation
YPDN 290600Z 27011KT 9999 -SHRA SCT008 BKN021 26/24 Q1003
Station
Darwin Airport
Date/Time
2022-11-29 06:00:00
Wind direction
270°
Wind speed
11 kts
Lowest cloud amount
scattered clouds
Temperature
26°C
Dew point
24°C
Humidity
88%
QNH
1003 hPa
Weather condition
light showers rain

Darwin International Airport serves the city of Darwin and the rest of the Australian Northern Territory. It is classified as a joint (civil/military) use aerodrome and is located in the northern Darwin suburb of Marrara,13 km from the city centre, .

Climatology

Tropical Savanna climate (Köppen climate classification Aw).

Airport map

Aerial View

SKYbrary Partners:

Safety knowledge contributed by: